Aeroporto :
LOGIN :

Iscrizione | Disclaimer

   EN    FR    IT 

 










Sommario :    VFR   VFR Marginale   IFR   IFR Intensivo   IFR Molto Intensivo
Visibilità : 
Base nubi : 
>= 8 km
>= 3000ft
5 / 8 km
1000 / 3000 ft
1500m / 5 km
500 / 1000 ft
800 / 1500m
200 / 500 ft
< 800m
< 200 ft
Simboli :   Temporali  Nebbia  Neve Forte  Precipitazioni Forti  Vento > 20 kt
SIGMETs :   Varie  Temporali  Ghiacco  Turbolenza  Onda orograficha  Ceneri Vulcaniche






- Altitudine del aeroporto : 183 ft
- Codice IATA : HAJ


EDDV - Hanover/Langenhagen Int.

ULTIMO METAR :
  • 221620Z 27006KT 240V300 6000 BKN004 BKN026 05/04 Q1034 TEMPO 4500 BKN006

METARs OBSOLETI :
  • 221550Z 27007KT 4500 BR BKN004 BKN027 05/04 Q1033 TEMPO 5000 BKN006
  • 221520Z 27008KT 3800 -DZ BR BKN004 05/04 Q1033 TEMPO BKN006
  • 221450Z 27008KT 240V300 3500 -DZ BR BKN004 05/04 Q1033 TEMPO BKN006
  • 221420Z 27007KT 240V310 3500 -DZ BR BKN004 05/04 Q1033 NOSIG
  • 221350Z 27007KT 240V300 3500 -DZ BR OVC004 04/04 Q1033 NOSIG

TAF TAF EDDV
Valido dal 22 a 12 ore il 23 a 12 ore UTC


221100Z 2212/2312 28010KT 5000 BR OVC005
TEMPO 2212/2309 2000 -DZ BR BKN003
PROB30
TEMPO 2216/2309 SCT003 BKN015
BECMG 2220/2222 26004KT
BECMG 2309/2311 20005KT BKN015



MetMap, La meteo Aeronautica in un colpo d'occhio ! - Copyright ORBIFLY Dicembre 2007 - Disclaimer

ORBIFLY MET'MAP TEAM :

Programmazione e sviluppo : Alexandra Zaïnal
Concezione : Baudouin d'Aumeries
Aiuto per la programmazione : Marc-Olivier Méhu
Supporto tecnico e logistico : Manuel Goepfert
Aiuto per la traduzione : Arnaldo La Scala

Contatto : metmap@orbifly.com




FONTI E CREDITI :

   NOAA